Time;durP1;ratioP1;P1;durP2;ratioP2;P2;SDS_P1;SDS_P2;PMS_P1;PMS_P2;Temp;Humidity;BMP_temperature;BMP_pressure;BME280_temperature;BME280_humidity;BME280_pressure;Samples;Min_cycle;Max_cycle;Signal;HPM_P1;HPM_P2
2024/01/02 00:03:18;;;;;;;2.40;0.95;;;;;;;;;;10440609;28;20509;-72
2024/01/02 00:08:21;;;;;;;1.08;0.57;;;;;;;;;;10429160;28;20059;-73
2024/01/02 00:13:26;;;;;;;1.35;0.80;;;;;;;;;;10442827;28;20454;-73
2024/01/02 00:18:29;;;;;;;1.38;0.52;;;;;;;;;;10445030;28;20049;-73
2024/01/02 00:23:32;;;;;;;1.52;1.00;;;;;;;;;;10438858;28;20069;-72
2024/01/02 00:28:37;;;;;;;3.30;1.02;;;;;;;;;;10436605;28;20041;-73
2024/01/02 00:33:40;;;;;;;2.30;0.65;;;;;;;;;;10445191;28;20053;-73
2024/01/02 00:38:43;;;;;;;3.45;1.08;;;;;;;;;;10424281;28;20520;-73
2024/01/02 00:43:48;;;;;;;1.67;0.88;;;;;;;;;;10446687;28;20437;-72
2024/01/02 00:48:51;;;;;;;1.45;0.98;;;;;;;;;;10441003;28;20041;-73
2024/01/02 00:53:54;;;;;;;0.90;0.60;;;;;;;;;;10422567;28;20045;-73
2024/01/02 00:58:59;;;;;;;2.45;0.50;;;;;;;;;;10424830;28;20208;-73
2024/01/02 01:04:03;;;;;;;0.70;0.63;;;;;;;;;;10441612;28;20041;-73
2024/01/02 01:09:07;;;;;;;1.13;0.75;;;;;;;;;;10437070;28;20515;-73
2024/01/02 01:14:11;;;;;;;0.95;0.57;;;;;;;;;;10423074;28;20044;-73
2024/01/02 01:19:15;;;;;;;0.43;0.43;;;;;;;;;;10419101;28;20160;-73
2024/01/02 01:24:18;;;;;;;1.40;0.60;;;;;;;;;;10439184;28;20051;-73
2024/01/02 01:29:24;;;;;;;1.25;0.65;;;;;;;;;;10437593;28;20049;-73
2024/01/02 01:34:27;;;;;;;1.15;0.60;;;;;;;;;;10440163;28;20119;-73
2024/01/02 01:39:30;;;;;;;1.00;0.73;;;;;;;;;;10446114;28;20606;-73
2024/01/02 01:44:35;;;;;;;1.13;0.55;;;;;;;;;;10435765;28;20494;-74
2024/01/02 01:49:38;;;;;;;0.40;0.40;;;;;;;;;;10441524;28;20037;-73
2024/01/02 01:54:42;;;;;;;1.52;0.63;;;;;;;;;;10438033;28;20049;-73
2024/01/02 01:59:47;;;;;;;1.15;0.60;;;;;;;;;;10413576;28;20049;-73
2024/01/02 02:04:51;;;;;;;0.75;0.50;;;;;;;;;;10419776;28;20056;-73
2024/01/02 02:09:54;;;;;;;0.60;0.38;;;;;;;;;;10423350;28;20498;-73
2024/01/02 02:14:59;;;;;;;0.88;0.40;;;;;;;;;;10411725;28;20052;-73
2024/01/02 02:20:02;;;;;;;0.50;0.40;;;;;;;;;;10426483;28;20045;-73
2024/01/02 02:25:09;;;;;;;1.45;0.50;;;;;;;;;;10417556;28;20064;-73
2024/01/02 02:30:13;;;;;;;0.60;0.40;;;;;;;;;;10428966;28;20050;-74
2024/01/02 02:35:16;;;;;;;0.52;0.50;;;;;;;;;;10412919;28;20057;-73
2024/01/02 02:40:20;;;;;;;0.40;0.30;;;;;;;;;;10410138;28;20550;-73
2024/01/02 02:45:24;;;;;;;0.63;0.30;;;;;;;;;;10431291;28;20120;-73
2024/01/02 02:50:27;;;;;;;0.30;0.30;;;;;;;;;;10420707;28;20643;-73
2024/01/02 02:55:32;;;;;;;0.43;0.30;;;;;;;;;;10433160;28;20446;-73
2024/01/02 03:00:35;;;;;;;0.20;0.20;;;;;;;;;;10448410;28;20537;-73
2024/01/02 03:05:38;;;;;;;0.30;0.30;;;;;;;;;;10447314;28;20041;-73
2024/01/02 03:10:43;;;;;;;0.35;0.32;;;;;;;;;;10454640;28;20143;-73
2024/01/02 03:15:47;;;;;;;0.30;0.30;;;;;;;;;;10452366;28;20041;-73
2024/01/02 03:20:50;;;;;;;0.22;0.22;;;;;;;;;;10434180;28;20049;-73
2024/01/02 03:25:54;;;;;;;0.63;0.30;;;;;;;;;;10443035;28;20037;-73
2024/01/02 03:30:58;;;;;;;0.38;0.30;;;;;;;;;;10442055;22;20680;-74
2024/01/02 03:36:01;;;;;;;0.32;0.30;;;;;;;;;;10409110;28;20069;-74
2024/01/02 03:41:06;;;;;;;0.30;0.22;;;;;;;;;;10412430;28;20041;-74
2024/01/02 03:46:10;;;;;;;0.40;0.40;;;;;;;;;;10407528;28;20592;-74
2024/01/02 03:51:13;;;;;;;0.32;0.32;;;;;;;;;;10412352;28;20401;-74
2024/01/02 03:56:17;;;;;;;0.40;0.40;;;;;;;;;;10413886;28;20406;-74
2024/01/02 04:01:21;;;;;;;0.85;0.30;;;;;;;;;;10405000;28;20048;-74
2024/01/02 04:06:31;;;;;;;0.30;0.30;;;;;;;;;;10402491;28;20048;-74
2024/01/02 04:11:36;;;;;;;0.30;0.30;;;;;;;;;;10402328;28;20037;-75
2024/01/02 04:16:39;;;;;;;0.43;0.30;;;;;;;;;;10397720;28;20101;-74
2024/01/02 04:21:42;;;;;;;0.40;0.40;;;;;;;;;;10397153;28;20403;-74
2024/01/02 04:26:46;;;;;;;0.45;0.30;;;;;;;;;;10402479;28;20041;-75
2024/01/02 04:31:50;;;;;;;1.23;0.30;;;;;;;;;;10404112;28;20426;-74
2024/01/02 04:36:53;;;;;;;0.35;0.30;;;;;;;;;;10403750;28;20037;-74
2024/01/02 04:41:58;;;;;;;0.20;0.20;;;;;;;;;;10391856;28;20399;-74
2024/01/02 04:47:02;;;;;;;0.20;0.20;;;;;;;;;;10399950;28;20071;-74
2024/01/02 04:52:05;;;;;;;0.20;0.20;;;;;;;;;;10390485;28;20068;-74
2024/01/02 04:57:10;;;;;;;0.30;0.30;;;;;;;;;;10394423;28;20050;-74
2024/01/02 05:02:14;;;;;;;0.30;0.28;;;;;;;;;;10391889;28;20089;-74
2024/01/02 05:07:17;;;;;;;0.20;0.20;;;;;;;;;;10396675;28;20045;-75
2024/01/02 05:12:21;;;;;;;0.20;0.20;;;;;;;;;;10391945;28;20041;-75
2024/01/02 05:17:24;;;;;;;0.22;0.22;;;;;;;;;;10395679;28;21177;-75
2024/01/02 05:22:28;;;;;;;0.20;0.20;;;;;;;;;;10391970;28;20229;-74
2024/01/02 05:27:32;;;;;;;0.30;0.30;;;;;;;;;;10399903;28;20514;-75
2024/01/02 05:32:36;;;;;;;0.20;0.20;;;;;;;;;;10398717;28;20041;-75
2024/01/02 05:37:39;;;;;;;0.20;0.20;;;;;;;;;;10393987;28;20057;-74
2024/01/02 05:42:44;;;;;;;0.20;0.20;;;;;;;;;;10392221;28;20045;-74
2024/01/02 05:47:48;;;;;;;0.20;0.20;;;;;;;;;;10394143;28;20041;-75
2024/01/02 05:52:51;;;;;;;0.20;0.20;;;;;;;;;;10396978;28;20344;-74
2024/01/02 05:57:55;;;;;;;0.20;0.20;;;;;;;;;;10393016;28;20116;-75
2024/01/02 06:02:59;;;;;;;0.20;0.20;;;;;;;;;;10405970;28;20067;-74
2024/01/02 06:08:02;;;;;;;0.20;0.20;;;;;;;;;;10393410;28;20045;-75
2024/01/02 06:13:07;;;;;;;0.20;0.20;;;;;;;;;;10388259;28;20045;-75
2024/01/02 06:18:11;;;;;;;0.20;0.20;;;;;;;;;;10392643;28;20614;-74
2024/01/02 06:23:14;;;;;;;0.20;0.20;;;;;;;;;;10396371;28;20041;-75
2024/01/02 06:28:19;;;;;;;0.35;0.30;;;;;;;;;;10408549;28;20128;-74
2024/01/02 06:33:24;;;;;;;0.30;0.30;;;;;;;;;;10395440;28;20076;-75
2024/01/02 06:38:28;;;;;;;0.35;0.30;;;;;;;;;;10385370;28;20880;-75
2024/01/02 06:43:33;;;;;;;0.20;0.20;;;;;;;;;;10389511;28;20045;-75
2024/01/02 06:48:36;;;;;;;0.30;0.30;;;;;;;;;;10390031;28;20044;-74
2024/01/02 06:53:39;;;;;;;0.25;0.25;;;;;;;;;;10391063;28;20048;-74
2024/01/02 06:58:44;;;;;;;0.25;0.25;;;;;;;;;;10394686;28;20756;-74
2024/01/02 07:03:48;;;;;;;0.25;0.25;;;;;;;;;;10396857;28;20041;-74
2024/01/02 07:08:52;;;;;;;0.20;0.20;;;;;;;;;;10394535;28;20620;-75
2024/01/02 07:13:57;;;;;;;0.20;0.20;;;;;;;;;;10396989;28;20063;-74
2024/01/02 07:19:00;;;;;;;0.40;0.30;;;;;;;;;;10389412;28;20046;-75
2024/01/02 07:24:04;;;;;;;0.20;0.20;;;;;;;;;;10390804;28;20049;-75
2024/01/02 07:29:09;;;;;;;0.20;0.20;;;;;;;;;;10394550;28;20040;-75
2024/01/02 07:34:14;;;;;;;1.75;0.20;;;;;;;;;;10395881;28;20515;-75
2024/01/02 07:39:18;;;;;;;0.13;0.13;;;;;;;;;;10404266;28;20466;-75
2024/01/02 07:44:23;;;;;;;0.20;0.20;;;;;;;;;;10397279;28;20045;-74
2024/01/02 07:49:26;;;;;;;0.20;0.20;;;;;;;;;;10397968;28;20073;-74
2024/01/02 07:54:30;;;;;;;0.20;0.20;;;;;;;;;;10399954;28;20132;-75
2024/01/02 07:59:34;;;;;;;0.20;0.20;;;;;;;;;;10398832;28;20033;-75
2024/01/02 08:04:37;;;;;;;1.00;0.20;;;;;;;;;;10398930;28;20034;-74
2024/01/02 08:09:41;;;;;;;0.17;0.17;;;;;;;;;;10392746;28;20124;-74
2024/01/02 08:14:46;;;;;;;0.20;0.20;;;;;;;;;;10398509;28;20038;-74
2024/01/02 08:19:49;;;;;;;0.20;0.20;;;;;;;;;;10392481;28;20521;-74
2024/01/02 08:24:53;;;;;;;0.17;0.17;;;;;;;;;;10393219;28;20131;-74
2024/01/02 08:29:59;;;;;;;0.20;0.20;;;;;;;;;;10403689;28;20126;-74
2024/01/02 08:35:02;;;;;;;0.20;0.20;;;;;;;;;;10397555;28;20058;-74
2024/01/02 08:40:06;;;;;;;3.70;0.20;;;;;;;;;;10399654;28;20067;-74
2024/01/02 08:45:11;;;;;;;0.20;0.20;;;;;;;;;;10398940;28;20038;-74
2024/01/02 08:50:14;;;;;;;0.13;0.13;;;;;;;;;;10391338;28;20053;-74
2024/01/02 08:55:18;;;;;;;0.38;0.28;;;;;;;;;;10393105;28;20050;-74
2024/01/02 09:00:22;;;;;;;0.35;0.20;;;;;;;;;;10397425;28;20044;-74
2024/01/02 09:05:26;;;;;;;2.83;0.20;;;;;;;;;;10401616;28;20051;-74
2024/01/02 09:10:29;;;;;;;0.52;0.20;;;;;;;;;;10399416;28;20092;-74
2024/01/02 09:15:35;;;;;;;0.20;0.20;;;;;;;;;;10403782;28;20045;-74
2024/01/02 09:20:38;;;;;;;0.60;0.35;;;;;;;;;;10406191;28;20048;-74
2024/01/02 09:25:47;;;;;;;0.20;0.20;;;;;;;;;;10402224;28;20051;-74
2024/01/02 09:30:51;;;;;;;0.82;0.20;;;;;;;;;;10399226;28;20041;-74
2024/01/02 09:35:55;;;;;;;0.28;0.20;;;;;;;;;;10390512;28;20100;-74
2024/01/02 09:41:24;;;;;;;0.80;0.35;;;;;;;;;;10401730;28;20048;-74
2024/01/02 09:46:35;;;;;;;0.20;0.20;;;;;;;;;;10402480;28;20044;-74
2024/01/02 09:51:51;;;;;;;0.20;0.20;;;;;;;;;;10396615;28;20044;-74
2024/01/02 09:57:03;;;;;;;0.20;0.20;;;;;;;;;;10395795;28;20569;-74
2024/01/02 10:02:35;;;;;;;0.20;0.20;;;;;;;;;;10389852;28;20163;-74
2024/01/02 10:08:10;;;;;;;0.20;0.20;;;;;;;;;;10392488;28;20507;-74
2024/01/02 10:13:25;;;;;;;0.20;0.20;;;;;;;;;;10377550;28;20337;-74
2024/01/02 10:18:39;;;;;;;0.90;0.50;;;;;;;;;;10395541;28;20394;-74
2024/01/02 10:23:55;;;;;;;0.38;0.38;;;;;;;;;;10389977;28;20057;-74
2024/01/02 10:29:07;;;;;;;3.42;0.40;;;;;;;;;;10393853;28;20416;-74
2024/01/02 10:34:26;;;;;;;0.35;0.20;;;;;;;;;;10392078;28;20083;-74
2024/01/02 10:39:35;;;;;;;0.20;0.20;;;;;;;;;;10397796;28;20436;-74
2024/01/02 10:44:42;;;;;;;0.38;0.20;;;;;;;;;;10390260;28;20037;-74
2024/01/02 10:49:55;;;;;;;0.20;0.20;;;;;;;;;;10394709;28;20037;-74
2024/01/02 10:55:07;;;;;;;0.65;0.20;;;;;;;;;;10391186;28;20041;-74
2024/01/02 11:00:20;;;;;;;0.43;0.40;;;;;;;;;;10393685;28;20030;-74
2024/01/02 11:05:35;;;;;;;0.20;0.20;;;;;;;;;;10399562;28;20052;-74
2024/01/02 11:10:45;;;;;;;0.60;0.60;;;;;;;;;;10400785;28;20056;-74
2024/01/02 11:15:53;;;;;;;0.30;0.30;;;;;;;;;;10391098;28;20446;-74
2024/01/02 11:21:02;;;;;;;0.40;0.40;;;;;;;;;;10398739;28;20413;-74
2024/01/02 11:26:12;;;;;;;0.57;0.50;;;;;;;;;;10403789;28;20038;-74
2024/01/02 11:31:16;;;;;;;0.25;0.25;;;;;;;;;;10401300;28;20395;-74
2024/01/02 11:36:30;;;;;;;0.20;0.20;;;;;;;;;;10400711;28;20045;-74
2024/01/02 11:41:43;;;;;;;0.30;0.30;;;;;;;;;;10403862;28;20407;-74
2024/01/02 11:46:52;;;;;;;0.40;0.40;;;;;;;;;;10399468;28;20084;-74
2024/01/02 11:52:03;;;;;;;0.35;0.20;;;;;;;;;;10397541;28;20651;-74
2024/01/02 11:57:10;;;;;;;0.20;0.20;;;;;;;;;;10401062;28;20058;-74
2024/01/02 12:02:29;;;;;;;0.60;0.20;;;;;;;;;;10399143;28;20064;-74
2024/01/02 12:07:37;;;;;;;0.52;0.30;;;;;;;;;;10398111;28;20046;-75
2024/01/02 12:12:54;;;;;;;0.30;0.30;;;;;;;;;;10405005;28;20135;-74
2024/01/02 12:17:59;;;;;;;0.30;0.20;;;;;;;;;;10416116;28;20147;-75
2024/01/02 12:23:05;;;;;;;0.50;0.20;;;;;;;;;;10399875;28;20052;-75
2024/01/02 12:28:08;;;;;;;0.20;0.20;;;;;;;;;;10392470;28;20487;-75
2024/01/02 12:33:19;;;;;;;0.20;0.20;;;;;;;;;;10402839;28;20092;-74
2024/01/02 12:38:26;;;;;;;0.70;0.47;;;;;;;;;;10395683;28;20529;-75
2024/01/02 12:43:31;;;;;;;0.22;0.22;;;;;;;;;;10404117;28;20449;-74
2024/01/02 12:48:44;;;;;;;0.55;0.22;;;;;;;;;;10403473;28;20040;-75
2024/01/02 12:53:53;;;;;;;0.20;0.20;;;;;;;;;;10404812;28;20057;-75
2024/01/02 12:58:57;;;;;;;0.20;0.20;;;;;;;;;;10395024;28;20045;-74
2024/01/02 13:04:00;;;;;;;0.90;0.30;;;;;;;;;;10399331;28;20523;-75
2024/01/02 13:09:05;;;;;;;0.28;0.28;;;;;;;;;;10396109;28;20056;-74
2024/01/02 13:14:11;;;;;;;0.20;0.20;;;;;;;;;;10392709;28;20103;-75
2024/01/02 13:19:16;;;;;;;0.20;0.20;;;;;;;;;;10389018;28;20038;-74
2024/01/02 13:24:22;;;;;;;0.50;0.50;;;;;;;;;;10399637;28;20029;-75
2024/01/02 13:29:25;;;;;;;0.20;0.20;;;;;;;;;;10396464;28;20042;-75
2024/01/02 13:34:29;;;;;;;0.30;0.20;;;;;;;;;;10397371;28;20064;-75
2024/01/02 13:39:35;;;;;;;0.40;0.30;;;;;;;;;;10397188;28;20761;-75
2024/01/02 13:44:39;;;;;;;0.90;0.47;;;;;;;;;;10390947;28;20071;-75
2024/01/02 13:49:47;;;;;;;1.13;0.30;;;;;;;;;;10399149;28;20645;-74
2024/01/02 13:54:55;;;;;;;2.05;0.30;;;;;;;;;;10398888;28;20049;-75
2024/01/02 13:59:59;;;;;;;0.77;0.50;;;;;;;;;;10396515;28;20049;-74
2024/01/02 14:05:05;;;;;;;2.25;0.50;;;;;;;;;;10397457;28;20045;-75
2024/01/02 14:10:11;;;;;;;2.88;0.80;;;;;;;;;;10395373;28;20069;-75
2024/01/02 14:15:19;;;;;;;0.73;0.47;;;;;;;;;;10393346;28;20048;-75
2024/01/02 14:20:27;;;;;;;0.70;0.47;;;;;;;;;;10399803;28;22001;-75
2024/01/02 14:25:54;;;;;;;0.60;0.55;;;;;;;;;;10397406;28;20049;-75
2024/01/02 14:31:10;;;;;;;0.52;0.45;;;;;;;;;;10404075;28;20049;-75
2024/01/02 14:36:34;;;;;;;1.83;0.93;;;;;;;;;;10394027;28;20419;-74
2024/01/02 14:42:15;;;;;;;1.95;1.25;;;;;;;;;;10396805;28;20041;-75
2024/01/02 14:47:29;;;;;;;3.60;1.30;;;;;;;;;;10395150;28;20514;-75
2024/01/02 14:53:05;;;;;;;15.48;4.90;;;;;;;;;;10395826;28;20049;-75
2024/01/02 14:58:20;;;;;;;2.05;1.08;;;;;;;;;;10395026;28;20064;-75
2024/01/02 15:03:39;;;;;;;0.80;0.50;;;;;;;;;;10390443;28;20050;-75
2024/01/02 15:08:49;;;;;;;0.57;0.45;;;;;;;;;;10396297;28;20089;-75
2024/01/02 15:14:18;;;;;;;1.02;0.60;;;;;;;;;;10396142;28;20041;-75
2024/01/02 15:19:34;;;;;;;0.98;0.43;;;;;;;;;;10391530;28;20062;-75
2024/01/02 15:24:42;;;;;;;1.23;0.70;;;;;;;;;;10396004;28;20042;-75
2024/01/02 15:29:55;;;;;;;0.73;0.40;;;;;;;;;;10390468;28;20072;-75
2024/01/02 15:35:06;;;;;;;0.40;0.40;;;;;;;;;;10392785;28;20521;-75
2024/01/02 15:40:10;;;;;;;0.55;0.40;;;;;;;;;;10394645;28;20139;-75
2024/01/02 15:45:19;;;;;;;0.70;0.60;;;;;;;;;;10391066;28;20044;-74
2024/01/02 15:50:27;;;;;;;0.77;0.50;;;;;;;;;;10407550;28;20416;-75
2024/01/02 15:55:37;;;;;;;0.88;0.40;;;;;;;;;;10398207;28;20041;-75
2024/01/02 16:00:44;;;;;;;0.30;0.30;;;;;;;;;;10404186;28;20048;-75
2024/01/02 16:06:27;;;;;;;0.43;0.43;;;;;;;;;;10406771;28;20453;-75
2024/01/02 16:11:44;;;;;;;2.70;0.50;;;;;;;;;;10376972;28;20050;-75
2024/01/02 16:17:04;;;;;;;0.80;0.43;;;;;;;;;;10395266;28;20042;-74
2024/01/02 16:22:43;;;;;;;1.13;0.70;;;;;;;;;;10401237;28;20464;-74
2024/01/02 16:28:15;;;;;;;0.63;0.50;;;;;;;;;;10397981;28;20069;-75
2024/01/02 16:33:36;;;;;;;0.40;0.40;;;;;;;;;;10399807;28;20399;-74
2024/01/02 16:38:40;;;;;;;0.43;0.40;;;;;;;;;;10402599;28;20576;-74
2024/01/02 16:43:47;;;;;;;0.45;0.40;;;;;;;;;;10399159;28;20575;-75
2024/01/02 16:48:53;;;;;;;1.55;0.40;;;;;;;;;;10390968;28;20137;-75
2024/01/02 16:54:00;;;;;;;0.55;0.40;;;;;;;;;;10392566;28;20076;-75
2024/01/02 16:59:05;;;;;;;0.30;0.30;;;;;;;;;;10390402;28;20097;-75
2024/01/02 17:04:10;;;;;;;1.05;0.55;;;;;;;;;;10434454;23;20144;-76
2024/01/02 17:09:15;;;;;;;1.40;0.57;;;;;;;;;;10431663;28;20103;-76
2024/01/02 17:14:19;;;;;;;1.05;0.70;;;;;;;;;;10415173;28;20395;-74
2024/01/02 17:19:25;;;;;;;0.30;0.30;;;;;;;;;;10434280;28;20319;-75
2024/01/02 17:24:28;;;;;;;0.85;0.50;;;;;;;;;;10437057;28;20110;-75
2024/01/02 17:29:32;;;;;;;0.40;0.40;;;;;;;;;;10436220;28;20058;-74
2024/01/02 17:34:37;;;;;;;0.32;0.32;;;;;;;;;;10430393;28;20037;-75
2024/01/02 17:39:42;;;;;;;0.30;0.30;;;;;;;;;;10433512;28;20041;-75
2024/01/02 17:44:46;;;;;;;0.32;0.30;;;;;;;;;;10416034;28;20398;-75
2024/01/02 17:49:51;;;;;;;0.52;0.45;;;;;;;;;;10416498;28;20125;-75
2024/01/02 17:54:55;;;;;;;1.42;0.80;;;;;;;;;;10416078;28;20053;-75
2024/01/02 18:00:00;;;;;;;0.63;0.60;;;;;;;;;;10438282;28;20041;-75
2024/01/02 18:05:24;;;;;;;0.73;0.50;;;;;;;;;;10439567;28;20049;-75
2024/01/02 18:10:36;;;;;;;0.20;0.20;;;;;;;;;;10437606;28;20517;-75
2024/01/02 18:15:56;;;;;;;0.52;0.40;;;;;;;;;;10427078;28;20037;-75
2024/01/02 18:21:13;;;;;;;0.30;0.30;;;;;;;;;;10430432;28;20048;-75
2024/01/02 18:26:27;;;;;;;0.40;0.40;;;;;;;;;;10432483;28;20475;-75
2024/01/02 18:31:37;;;;;;;0.20;0.20;;;;;;;;;;10407140;28;20502;-75
2024/01/02 18:36:59;;;;;;;0.57;0.30;;;;;;;;;;10421278;28;20068;-75
2024/01/02 18:42:07;;;;;;;0.47;0.40;;;;;;;;;;10427086;28;20082;-75
2024/01/02 18:47:16;;;;;;;0.70;0.57;;;;;;;;;;10420393;28;20041;-75
2024/01/02 18:52:25;;;;;;;0.73;0.47;;;;;;;;;;10433502;28;20045;-75
2024/01/02 18:57:28;;;;;;;0.52;0.30;;;;;;;;;;10433349;28;20125;-75
2024/01/02 19:02:49;;;;;;;0.30;0.30;;;;;;;;;;10437084;28;20049;-75
2024/01/02 19:08:05;;;;;;;0.35;0.32;;;;;;;;;;10434527;28;21432;-75
2024/01/02 19:13:09;;;;;;;;;;;;;;;;;;10419400;28;20402;-75
2024/01/02 19:18:13;;;;;;;1.10;0.55;;;;;;;;;;10438089;28;19939;-75
2024/01/02 19:23:19;;;;;;;0.40;0.40;;;;;;;;;;10434612;28;20102;-74
2024/01/02 19:28:23;;;;;;;0.40;0.40;;;;;;;;;;10437767;28;20083;-75
2024/01/02 19:33:26;;;;;;;1.33;0.70;;;;;;;;;;10431004;28;20124;-75
2024/01/02 19:38:31;;;;;;;0.32;0.32;;;;;;;;;;10439663;28;20552;-75
2024/01/02 19:43:34;;;;;;;0.40;0.35;;;;;;;;;;10437101;28;20080;-75
2024/01/02 19:48:38;;;;;;;1.38;0.75;;;;;;;;;;10437436;28;20521;-75
2024/01/02 19:53:43;;;;;;;0.73;0.40;;;;;;;;;;10419774;28;20590;-75
2024/01/02 19:58:46;;;;;;;0.40;0.40;;;;;;;;;;10438748;28;20120;-75
2024/01/02 20:03:52;;;;;;;0.30;0.30;;;;;;;;;;10433506;28;20634;-75
2024/01/02 20:08:56;;;;;;;0.52;0.30;;;;;;;;;;10429434;28;20153;-76
2024/01/02 20:14:00;;;;;;;0.68;0.60;;;;;;;;;;10431877;28;20033;-75
2024/01/02 20:19:06;;;;;;;0.40;0.40;;;;;;;;;;10432803;28;20094;-75
2024/01/02 20:24:17;;;;;;;1.42;0.80;;;;;;;;;;10436833;28;20128;-75
2024/01/02 20:29:54;;;;;;;0.40;0.40;;;;;;;;;;10432042;28;20566;-75
2024/01/02 20:35:02;;;;;;;2.78;0.85;;;;;;;;;;10362978;28;20055;-75
2024/01/02 20:40:40;;;;;;;2.13;0.60;;;;;;;;;;10418773;28;20047;-74
2024/01/02 20:45:43;;;;;;;1.63;1.08;;;;;;;;;;10442769;28;20510;-74
2024/01/02 20:50:49;;;;;;;0.93;0.70;;;;;;;;;;10441965;28;20055;-74
2024/01/02 20:55:54;;;;;;;0.47;0.40;;;;;;;;;;10439552;28;20041;-74
2024/01/02 21:00:57;;;;;;;1.40;0.63;;;;;;;;;;10432002;28;20041;-74
2024/01/02 21:06:24;;;;;;;0.73;0.47;;;;;;;;;;10432648;28;20095;-74
2024/01/02 21:11:29;;;;;;;0.50;0.40;;;;;;;;;;10434904;28;20045;-74
2024/01/02 21:16:36;;;;;;;0.93;0.50;;;;;;;;;;10436199;28;20041;-74
2024/01/02 21:21:41;;;;;;;1.65;0.55;;;;;;;;;;10431057;28;20422;-74
2024/01/02 21:26:46;;;;;;;0.33;0.30;;;;;;;;;;10428187;28;20048;-74
2024/01/02 21:31:50;;;;;;;1.25;0.40;;;;;;;;;;10430073;28;20076;-74
2024/01/02 21:36:53;;;;;;;0.60;0.52;;;;;;;;;;10432801;28;20607;-74
2024/01/02 21:41:58;;;;;;;0.45;0.32;;;;;;;;;;10428519;28;20053;-75
2024/01/02 21:47:02;;;;;;;1.52;0.50;;;;;;;;;;10437387;28;20239;-74
2024/01/02 21:52:09;;;;;;;1.20;0.60;;;;;;;;;;10430895;28;20053;-74
2024/01/02 21:57:13;;;;;;;2.28;0.60;;;;;;;;;;10441826;28;20034;-74
2024/01/02 22:03:08;;;;;;;3.38;0.82;;;;;;;;;;10434938;28;20132;-74
2024/01/02 22:08:23;;;;;;;3.83;1.50;;;;;;;;;;10439617;28;20768;-74
2024/01/02 22:13:48;;;;;;;12.20;4.90;;;;;;;;;;10431163;28;20717;-74
2024/01/02 22:19:01;;;;;;;2.55;1.50;;;;;;;;;;10429254;28;20045;-74
2024/01/02 22:24:43;;;;;;;2.60;1.02;;;;;;;;;;10414447;28;20055;-74
2024/01/02 22:29:48;;;;;;;3.63;2.17;;;;;;;;;;10432065;28;20091;-74
2024/01/02 22:34:52;;;;;;;2.63;1.30;;;;;;;;;;10425287;28;20132;-74
2024/01/02 22:39:56;;;;;;;7.32;3.88;;;;;;;;;;10429145;28;20468;-74
2024/01/02 22:45:01;;;;;;;7.47;4.18;;;;;;;;;;10430020;28;20071;-74
2024/01/02 22:50:05;;;;;;;2.53;1.58;;;;;;;;;;10424686;28;20059;-74
2024/01/02 22:55:09;;;;;;;0.60;0.60;;;;;;;;;;10431112;28;20037;-74
2024/01/02 23:00:16;;;;;;;4.55;1.00;;;;;;;;;;10428852;28;20056;-74
2024/01/02 23:05:19;;;;;;;4.18;2.17;;;;;;;;;;10465793;23;20563;-75
2024/01/02 23:10:22;;;;;;;2.85;1.05;;;;;;;;;;10483503;28;20040;-75
2024/01/02 23:16:15;;;;;;;1.45;0.70;;;;;;;;;;10487075;28;20045;-75
2024/01/02 23:21:18;;;;;;;1.25;0.60;;;;;;;;;;10480558;28;20040;-75
2024/01/02 23:26:21;;;;;;;0.80;0.45;;;;;;;;;;10466910;28;20047;-75
2024/01/02 23:31:26;;;;;;;1.85;0.68;;;;;;;;;;10483315;28;20054;-75
2024/01/02 23:36:30;;;;;;;1.88;0.75;;;;;;;;;;10480153;28;20409;-75
2024/01/02 23:41:35;;;;;;;2.85;0.70;;;;;;;;;;10480152;28;20044;-75
2024/01/02 23:46:40;;;;;;;0.90;0.50;;;;;;;;;;10484685;28;20050;-75
2024/01/02 23:51:43;;;;;;;0.50;0.30;;;;;;;;;;10482554;28;20041;-75
2024/01/02 23:56:46;;;;;;;0.85;0.40;;;;;;;;;;10481907;28;20045;-75
